PWSweather.com
Personal Weather Stations
Station Observations
IPORTUGA89
BarosaPT

BarosaPT

Lat: 39.754028, Lon: -8.843

Elevation: 98

Station Type: Davis Vp2

High Low Average
Temperature 54.9°F12.7°C 34.0°F1.1°C 44.6°F7.0°C
Dew Point 40.3°F4.6°C 31.8°F-0.1°C 37.0°F2.8°C
Winds 13.0 mph 20.9 kmh Calm Calm 4.0 mph WSW6.4 kmh WSW
Wind Gusts 25.1 mph40.4 kmh -- 8.0 mph12.9 kmh
Humidity 94% 49% 76%
Pressure 30.27 in1025.1 mb 30.08 in1018.6 mb -
Precipitation 0.01 in0.3 mm - -
Hour Temp Dew Point Humidity Winds Wind Gusts Pressure Precip Precip Rate Daily Precip Total
12:08 AM 46.8°F8.2°C 38.5°F3.6°C 73% 2.0 mph NNE3.2 kmh NNE 6.9 mph11.1 kmh 30.08 in1018.6 mb 0.00 in0.0 mm 0.00 in0.0 mm 0.00 in0.0 mm
12:18 AM 45.3°F7.4°C 37.6°F3.1°C 74% Calm Calm 4.0 mph6.4 kmh 30.08 in1018.6 mb 0.00 in0.0 mm 0.00 in0.0 mm 0.00 in0.0 mm
12:28 AM 44.8°F7.1°C 38.3°F3.5°C 78% 2.9 mph 4.7 kmh 6.9 mph11.1 kmh 30.09 in1019.0 mb 0.00 in0.0 mm 0.00 in0.0 mm 0.00 in0.0 mm
12:38 AM 44.4°F6.9°C 37.9°F3.3°C 78% Calm Calm -- 30.08 in1018.6 mb 0.00 in0.0 mm 0.00 in0.0 mm 0.00 in0.0 mm
12:49 AM 43.3°F6.3°C 37.2°F2.9°C 79% Calm Calm -- 30.09 in1019.0 mb 0.00 in0.0 mm 0.00 in0.0 mm 0.00 in0.0 mm
12:59 AM 41.7°F5.4°C 36.7°F2.6°C 82% Calm Calm -- 30.09 in1019.0 mb 0.00 in0.0 mm 0.00 in0.0 mm 0.00 in0.0 mm
01:09 AM 40.8°F4.9°C 36.3°F2.4°C 84% Calm Calm -- 30.09 in1019.0 mb 0.00 in0.0 mm 0.00 in0.0 mm 0.00 in0.0 mm
01:19 AM 40.6°F4.8°C 36.9°F2.7°C 86% Calm Calm -- 30.09 in1019.0 mb 0.00 in0.0 mm 0.00 in0.0 mm 0.00 in0.0 mm
01:29 AM 40.3°F4.6°C 36.5°F2.5°C 86% Calm Calm -- 30.09 in1019.0 mb 0.00 in0.0 mm 0.00 in0.0 mm 0.00 in0.0 mm
01:39 AM 39.6°F4.2°C 35.8°F2.1°C 86% Calm Calm -- 30.09 in1019.0 mb 0.00 in0.0 mm 0.00 in0.0 mm 0.00 in0.0 mm
01:49 AM 39.2°F4.0°C 36.0°F2.2°C 88% Calm Calm -- 30.09 in1019.0 mb 0.00 in0.0 mm 0.00 in0.0 mm 0.00 in0.0 mm
01:59 AM 38.8°F3.8°C 35.6°F2.0°C 88% Calm Calm -- 30.09 in1019.0 mb 0.00 in0.0 mm 0.00 in0.0 mm 0.00 in0.0 mm
02:10 AM 38.5°F3.6°C 35.6°F2.0°C 89% Calm Calm -- 30.09 in1019.0 mb 0.00 in0.0 mm 0.00 in0.0 mm 0.00 in0.0 mm
02:20 AM 38.1°F3.4°C 35.2°F1.8°C 89% Calm Calm -- 30.09 in1019.0 mb 0.00 in0.0 mm 0.00 in0.0 mm 0.00 in0.0 mm
02:30 AM 37.9°F3.3°C 35.2°F1.8°C 90% Calm Calm -- 30.09 in1019.0 mb 0.00 in0.0 mm 0.00 in0.0 mm 0.00 in0.0 mm
02:40 AM 37.6°F3.1°C 34.9°F1.6°C 90% Calm Calm -- 30.09 in1019.0 mb 0.00 in0.0 mm 0.00 in0.0 mm 0.00 in0.0 mm
02:50 AM 37.2°F2.9°C 34.5°F1.4°C 90% Calm Calm -- 30.09 in1019.0 mb 0.00 in0.0 mm 0.00 in0.0 mm 0.00 in0.0 mm
03:00 AM 37.0°F2.8°C 34.7°F1.5°C 91% Calm Calm -- 30.09 in1019.0 mb 0.00 in0.0 mm 0.00 in0.0 mm 0.00 in0.0 mm
03:10 AM 36.5°F2.5°C 34.2°F1.2°C 91% Calm Calm -- 30.09 in1019.0 mb 0.00 in0.0 mm 0.00 in0.0 mm 0.00 in0.0 mm
03:21 AM 36.3°F2.4°C 34.0°F1.1°C 91% Calm Calm -- 30.09 in1019.0 mb 0.00 in0.0 mm 0.00 in0.0 mm 0.00 in0.0 mm
03:31 AM 35.8°F2.1°C 33.4°F0.8°C 91% Calm Calm -- 30.10 in1019.3 mb 0.00 in0.0 mm 0.00 in0.0 mm 0.00 in0.0 mm
03:41 AM 35.8°F2.1°C 33.6°F0.9°C 92% Calm Calm -- 30.10 in1019.3 mb 0.00 in0.0 mm 0.00 in0.0 mm 0.00 in0.0 mm
03:51 AM 35.8°F2.1°C 33.6°F0.9°C 92% Calm Calm -- 30.11 in1019.6 mb 0.00 in0.0 mm 0.00 in0.0 mm 0.00 in0.0 mm
04:01 AM 36.0°F2.2°C 33.8°F1.0°C 92% Calm Calm -- 30.10 in1019.3 mb 0.00 in0.0 mm 0.00 in0.0 mm 0.00 in0.0 mm
04:11 AM 37.4°F3.0°C 35.6°F2.0°C 93% 2.9 mph NW4.7 kmh NW 8.1 mph13.0 kmh 30.10 in1019.3 mb 0.00 in0.0 mm 0.00 in0.0 mm 0.00 in0.0 mm
04:21 AM 39.4°F4.1°C 37.8°F3.2°C 94% 4.0 mph NNW6.4 kmh NNW 8.9 mph14.3 kmh 30.10 in1019.3 mb 0.00 in0.0 mm 0.00 in0.0 mm 0.00 in0.0 mm
04:31 AM 38.5°F3.6°C 36.1°F2.3°C 91% 2.0 mph NW3.2 kmh NW 6.0 mph9.7 kmh 30.10 in1019.3 mb 0.00 in0.0 mm 0.00 in0.0 mm 0.00 in0.0 mm
04:41 AM 39.6°F4.2°C 37.4°F3.0°C 92% 4.9 mph NNW7.9 kmh NNW 8.9 mph14.3 kmh 30.10 in1019.3 mb 0.00 in0.0 mm 0.00 in0.0 mm 0.00 in0.0 mm
04:51 AM 39.9°F4.4°C 37.2°F2.9°C 90% 0.9 mph NNW1.4 kmh NNW 4.9 mph7.9 kmh 30.10 in1019.3 mb 0.00 in0.0 mm 0.00 in0.0 mm 0.00 in0.0 mm
05:02 AM 38.1°F3.4°C 35.2°F1.8°C 89% 2.0 mph ESE3.2 kmh ESE 6.0 mph9.7 kmh 30.10 in1019.3 mb 0.00 in0.0 mm 0.00 in0.0 mm 0.00 in0.0 mm
05:12 AM 37.2°F2.9°C 34.5°F1.4°C 90% Calm Calm -- 30.11 in1019.6 mb 0.00 in0.0 mm 0.00 in0.0 mm 0.00 in0.0 mm
05:22 AM 36.7°F2.6°C 34.0°F1.1°C 90% Calm Calm -- 30.11 in1019.6 mb 0.00 in0.0 mm 0.00 in0.0 mm 0.00 in0.0 mm
05:32 AM 36.3°F2.4°C 34.0°F1.1°C 91% 0.9 mph NW1.4 kmh NW 4.9 mph7.9 kmh 30.11 in1019.6 mb 0.00 in0.0 mm 0.00 in0.0 mm 0.00 in0.0 mm
05:42 AM 36.1°F2.3°C 33.8°F1.0°C 91% Calm Calm 4.0 mph6.4 kmh 30.11 in1019.6 mb 0.00 in0.0 mm 0.00 in0.0 mm 0.00 in0.0 mm
05:52 AM 36.0°F2.2°C 33.6°F0.9°C 91% Calm Calm -- 30.12 in1020.0 mb 0.00 in0.0 mm 0.00 in0.0 mm 0.00 in0.0 mm
06:02 AM 35.8°F2.1°C 33.4°F0.8°C 91% Calm Calm -- 30.11 in1019.6 mb 0.00 in0.0 mm 0.00 in0.0 mm 0.00 in0.0 mm
06:12 AM 35.8°F2.1°C 33.4°F0.8°C 91% Calm Calm -- 30.12 in1020.0 mb 0.00 in0.0 mm 0.00 in0.0 mm 0.00 in0.0 mm
06:22 AM 36.0°F2.2°C 34.2°F1.2°C 93% 0.9 mph NW1.4 kmh NW 4.9 mph7.9 kmh 30.12 in1020.0 mb 0.00 in0.0 mm 0.00 in0.0 mm 0.00 in0.0 mm
06:32 AM 36.0°F2.2°C 33.8°F1.0°C 92% Calm Calm 2.9 mph4.7 kmh 30.12 in1020.0 mb 0.00 in0.0 mm 0.00 in0.0 mm 0.00 in0.0 mm
06:42 AM 35.8°F2.1°C 33.6°F0.9°C 92% Calm Calm -- 30.12 in1020.0 mb 0.00 in0.0 mm 0.00 in0.0 mm 0.00 in0.0 mm
06:53 AM 36.0°F2.2°C 34.2°F1.2°C 93% Calm Calm -- 30.12 in1020.0 mb 0.00 in0.0 mm 0.00 in0.0 mm 0.00 in0.0 mm
07:03 AM 35.6°F2.0°C 33.4°F0.8°C 92% Calm Calm -- 30.13 in1020.3 mb 0.00 in0.0 mm 0.00 in0.0 mm 0.00 in0.0 mm
07:13 AM 35.2°F1.8°C 33.1°F0.6°C 92% Calm Calm -- 30.14 in1020.7 mb 0.00 in0.0 mm 0.00 in0.0 mm 0.00 in0.0 mm
07:23 AM 35.4°F1.9°C 33.6°F0.9°C 93% Calm Calm -- 30.14 in1020.7 mb 0.00 in0.0 mm 0.00 in0.0 mm 0.00 in0.0 mm
07:33 AM 35.2°F1.8°C 33.1°F0.6°C 92% Calm Calm -- 30.14 in1020.7 mb 0.00 in0.0 mm 0.00 in0.0 mm 0.00 in0.0 mm
07:54 AM 34.0°F1.1°C 31.8°F-0.1°C 92% Calm Calm -- 30.15 in1021.0 mb 0.00 in0.0 mm 0.00 in0.0 mm 0.00 in0.0 mm
08:04 AM 34.2°F1.2°C 32.0°F0.0°C 92% Calm Calm 0.9 mph1.4 kmh 30.15 in1021.0 mb 0.00 in0.0 mm 0.00 in0.0 mm 0.00 in0.0 mm
08:14 AM 34.3°F1.3°C 32.2°F0.1°C 92% Calm Calm -- 30.16 in1021.3 mb 0.01 in0.3 mm 0.06 in1.5 mm 0.01 in0.3 mm
08:24 AM 34.9°F1.6°C 33.1°F0.6°C 93% Calm Calm 2.9 mph4.7 kmh 30.16 in1021.3 mb 0.01 in0.3 mm 0.00 in0.0 mm 0.01 in0.3 mm
08:34 AM 37.0°F2.8°C 35.4°F1.9°C 94% 0.9 mph NW1.4 kmh NW 4.9 mph7.9 kmh 30.16 in1021.3 mb 0.01 in0.3 mm 0.00 in0.0 mm 0.01 in0.3 mm
08:44 AM 40.8°F4.9°C 39.2°F4.0°C 94% 4.9 mph NNW7.9 kmh NNW 12.1 mph19.5 kmh 30.16 in1021.3 mb 0.01 in0.3 mm 0.00 in0.0 mm 0.01 in0.3 mm
08:54 AM 43.3°F6.3°C 40.3°F4.6°C 89% 6.0 mph N9.7 kmh N 11.0 mph17.7 kmh 30.16 in1021.3 mb 0.01 in0.3 mm 0.00 in0.0 mm 0.01 in0.3 mm
09:04 AM 45.1°F7.3°C 40.3°F4.6°C 83% 8.1 mph N13.0 kmh N 12.1 mph19.5 kmh 30.17 in1021.7 mb 0.01 in0.3 mm 0.00 in0.0 mm 0.01 in0.3 mm
09:14 AM 46.0°F7.8°C 39.6°F4.2°C 78% 6.9 mph 11.1 kmh 12.1 mph19.5 kmh 30.17 in1021.7 mb 0.00 in0.0 mm 0.00 in0.0 mm 0.01 in0.3 mm
09:24 AM 47.1°F8.4°C 39.6°F4.2°C 75% 6.9 mph N11.1 kmh N 12.1 mph19.5 kmh 30.17 in1021.7 mb 0.00 in0.0 mm 0.00 in0.0 mm 0.01 in0.3 mm
09:34 AM 47.7°F8.7°C 39.0°F3.9°C 72% 6.9 mph NNW11.1 kmh NNW 16.1 mph25.9 kmh 30.17 in1021.7 mb 0.00 in0.0 mm 0.00 in0.0 mm 0.01 in0.3 mm
09:44 AM 48.4°F9.1°C 39.4°F4.1°C 71% 4.0 mph NNE6.4 kmh NNE 12.1 mph19.5 kmh 30.17 in1021.7 mb 0.00 in0.0 mm 0.00 in0.0 mm 0.01 in0.3 mm
09:54 AM 48.9°F9.4°C 39.2°F4.0°C 69% 4.9 mph NNE7.9 kmh NNE 14.1 mph22.7 kmh 30.18 in1022.0 mb 0.00 in0.0 mm 0.00 in0.0 mm 0.01 in0.3 mm
10:04 AM 49.5°F9.7°C 39.4°F4.1°C 68% 8.1 mph 13.0 kmh 13.0 mph20.9 kmh 30.18 in1022.0 mb 0.00 in0.0 mm 0.00 in0.0 mm 0.01 in0.3 mm
10:14 AM 50.2°F10.1°C 39.6°F4.2°C 67% 4.9 mph N7.9 kmh N 12.1 mph19.5 kmh 30.18 in1022.0 mb 0.00 in0.0 mm 0.00 in0.0 mm 0.01 in0.3 mm
10:24 AM 50.5°F10.3°C 39.2°F4.0°C 65% 8.9 mph NW14.3 kmh NW 17.0 mph27.4 kmh 30.18 in1022.0 mb 0.00 in0.0 mm 0.00 in0.0 mm 0.01 in0.3 mm
10:34 AM 51.1°F10.6°C 39.7°F4.3°C 65% 8.9 mph NW14.3 kmh NW 19.0 mph30.6 kmh 30.18 in1022.0 mb 0.00 in0.0 mm 0.00 in0.0 mm 0.01 in0.3 mm
10:44 AM 51.1°F10.6°C 39.7°F4.3°C 65% 8.9 mph NE14.3 kmh NE 19.0 mph30.6 kmh 30.18 in1022.0 mb 0.00 in0.0 mm 0.00 in0.0 mm 0.01 in0.3 mm
10:54 AM 51.1°F10.6°C 39.4°F4.1°C 64% 8.9 mph NNW14.3 kmh NNW 19.0 mph30.6 kmh 30.18 in1022.0 mb 0.00 in0.0 mm 0.00 in0.0 mm 0.01 in0.3 mm
11:04 AM 51.4°F10.8°C 39.2°F4.0°C 63% 8.9 mph N14.3 kmh N 17.9 mph28.8 kmh 30.18 in1022.0 mb 0.00 in0.0 mm 0.00 in0.0 mm 0.01 in0.3 mm
11:14 AM 51.6°F10.9°C 39.9°F4.4°C 64% 10.1 mph NW16.3 kmh NW 19.0 mph30.6 kmh 30.18 in1022.0 mb 0.00 in0.0 mm 0.00 in0.0 mm 0.01 in0.3 mm
11:24 AM 52.0°F11.1°C 39.7°F4.3°C 63% 10.1 mph N16.3 kmh N 19.0 mph30.6 kmh 30.18 in1022.0 mb 0.00 in0.0 mm 0.00 in0.0 mm 0.01 in0.3 mm
11:34 AM 52.0°F11.1°C 39.4°F4.1°C 62% 11.0 mph 17.7 kmh 19.0 mph30.6 kmh 30.18 in1022.0 mb 0.00 in0.0 mm 0.00 in0.0 mm 0.01 in0.3 mm
11:44 AM 52.3°F11.3°C 39.7°F4.3°C 62% 11.0 mph N17.7 kmh N 17.9 mph28.8 kmh 30.18 in1022.0 mb 0.00 in0.0 mm 0.00 in0.0 mm 0.01 in0.3 mm
11:54 AM 52.5°F11.4°C 39.4°F4.1°C 61% 10.1 mph N16.3 kmh N 19.9 mph32.0 kmh 30.18 in1022.0 mb 0.00 in0.0 mm 0.00 in0.0 mm 0.01 in0.3 mm
12:04 PM 53.1°F11.7°C 39.6°F4.2°C 60% 12.1 mph NNE19.5 kmh NNE 25.1 mph40.4 kmh 30.18 in1022.0 mb 0.00 in0.0 mm 0.00 in0.0 mm 0.01 in0.3 mm
12:14 PM 53.6°F12.0°C 39.2°F4.0°C 58% 11.0 mph NNW17.7 kmh NNW 17.9 mph28.8 kmh 30.18 in1022.0 mb 0.00 in0.0 mm 0.00 in0.0 mm 0.01 in0.3 mm
12:24 PM 53.6°F12.0°C 39.2°F4.0°C 58% 12.1 mph NNW19.5 kmh NNW 21.0 mph33.8 kmh 30.18 in1022.0 mb 0.00 in0.0 mm 0.00 in0.0 mm 0.01 in0.3 mm
12:34 PM 54.1°F12.3°C 39.2°F4.0°C 57% 10.1 mph NW16.3 kmh NW 19.9 mph32.0 kmh 30.17 in1021.7 mb 0.00 in0.0 mm 0.00 in0.0 mm 0.01 in0.3 mm
12:44 PM 54.3°F12.4°C 38.5°F3.6°C 55% 8.9 mph N14.3 kmh N 15.0 mph24.1 kmh 30.16 in1021.3 mb 0.00 in0.0 mm 0.00 in0.0 mm 0.01 in0.3 mm
12:54 PM 54.7°F12.6°C 40.3°F4.6°C 58% 10.1 mph 16.3 kmh 15.0 mph24.1 kmh 30.16 in1021.3 mb 0.00 in0.0 mm 0.00 in0.0 mm 0.01 in0.3 mm
01:04 PM 54.7°F12.6°C 36.3°F2.4°C 50% 11.0 mph NW17.7 kmh NW 19.9 mph32.0 kmh 30.16 in1021.3 mb 0.00 in0.0 mm 0.00 in0.0 mm 0.01 in0.3 mm
01:14 PM 54.5°F12.5°C 36.7°F2.6°C 51% 11.0 mph N17.7 kmh N 19.9 mph32.0 kmh 30.16 in1021.3 mb 0.00 in0.0 mm 0.00 in0.0 mm 0.01 in0.3 mm
01:24 PM 54.9°F12.7°C 37.0°F2.8°C 51% 12.1 mph NNW19.5 kmh NNW 19.9 mph32.0 kmh 30.16 in1021.3 mb 0.00 in0.0 mm 0.00 in0.0 mm 0.01 in0.3 mm
01:35 PM 54.9°F12.7°C 36.1°F2.3°C 49% 11.0 mph NNE17.7 kmh NNE 17.9 mph28.8 kmh 30.15 in1021.0 mb 0.00 in0.0 mm 0.00 in0.0 mm 0.01 in0.3 mm
01:45 PM 54.9°F12.7°C 38.5°F3.6°C 54% 10.1 mph N16.3 kmh N 21.0 mph33.8 kmh 30.15 in1021.0 mb 0.00 in0.0 mm 0.00 in0.0 mm 0.01 in0.3 mm
01:55 PM 54.3°F12.4°C 38.5°F3.6°C 55% 11.0 mph NW17.7 kmh NW 19.9 mph32.0 kmh 30.15 in1021.0 mb 0.00 in0.0 mm 0.00 in0.0 mm 0.01 in0.3 mm
02:05 PM 54.3°F12.4°C 38.5°F3.6°C 55% 11.0 mph N17.7 kmh N 23.0 mph37.0 kmh 30.15 in1021.0 mb 0.00 in0.0 mm 0.00 in0.0 mm 0.01 in0.3 mm
02:15 PM 54.7°F12.6°C 39.4°F4.1°C 56% 11.0 mph N17.7 kmh N 19.0 mph30.6 kmh 30.15 in1021.0 mb 0.00 in0.0 mm 0.00 in0.0 mm 0.01 in0.3 mm
02:25 PM 54.3°F12.4°C 39.0°F3.9°C 56% 12.1 mph N19.5 kmh N 21.9 mph35.2 kmh 30.15 in1021.0 mb 0.00 in0.0 mm 0.00 in0.0 mm 0.01 in0.3 mm
02:35 PM 54.3°F12.4°C 39.0°F3.9°C 56% 12.1 mph N19.5 kmh N 21.9 mph35.2 kmh 30.15 in1021.0 mb 0.00 in0.0 mm 0.00 in0.0 mm 0.01 in0.3 mm
02:45 PM 54.0°F12.2°C 38.7°F3.7°C 56% 12.1 mph N19.5 kmh N 21.9 mph35.2 kmh 30.15 in1021.0 mb 0.00 in0.0 mm 0.00 in0.0 mm 0.01 in0.3 mm
02:55 PM 54.0°F12.2°C 39.0°F3.9°C 57% 12.1 mph NW19.5 kmh NW 23.9 mph38.5 kmh 30.16 in1021.3 mb 0.00 in0.0 mm 0.00 in0.0 mm 0.01 in0.3 mm
03:05 PM 54.0°F12.2°C 39.0°F3.9°C 57% 11.0 mph NNE17.7 kmh NNE 19.9 mph32.0 kmh 30.16 in1021.3 mb 0.00 in0.0 mm 0.00 in0.0 mm 0.01 in0.3 mm
03:15 PM 53.8°F12.1°C 38.5°F3.6°C 56% 11.0 mph N17.7 kmh N 21.9 mph35.2 kmh 30.16 in1021.3 mb 0.00 in0.0 mm 0.00 in0.0 mm 0.01 in0.3 mm
03:25 PM 53.8°F12.1°C 38.5°F3.6°C 56% 13.0 mph NNW20.9 kmh NNW 21.9 mph35.2 kmh 30.16 in1021.3 mb 0.00 in0.0 mm 0.00 in0.0 mm 0.01 in0.3 mm
03:35 PM 53.6°F12.0°C 38.3°F3.5°C 56% 12.1 mph NW19.5 kmh NW 21.0 mph33.8 kmh 30.16 in1021.3 mb 0.00 in0.0 mm 0.00 in0.0 mm 0.01 in0.3 mm
03:45 PM 53.8°F12.1°C 38.5°F3.6°C 56% 10.1 mph 16.3 kmh 19.0 mph30.6 kmh 30.16 in1021.3 mb 0.00 in0.0 mm 0.00 in0.0 mm 0.01 in0.3 mm
03:55 PM 53.8°F12.1°C 38.5°F3.6°C 56% 10.1 mph NNW16.3 kmh NNW 19.9 mph32.0 kmh 30.16 in1021.3 mb 0.00 in0.0 mm 0.00 in0.0 mm 0.01 in0.3 mm
04:05 PM 53.4°F11.9°C 38.5°F3.6°C 57% 12.1 mph N19.5 kmh N 23.0 mph37.0 kmh 30.17 in1021.7 mb 0.00 in0.0 mm 0.00 in0.0 mm 0.01 in0.3 mm
04:15 PM 53.4°F11.9°C 38.5°F3.6°C 57% 10.1 mph N16.3 kmh N 19.9 mph32.0 kmh 30.17 in1021.7 mb 0.00 in0.0 mm 0.00 in0.0 mm 0.01 in0.3 mm
04:25 PM 53.2°F11.8°C 38.5°F3.6°C 57% 10.1 mph N16.3 kmh N 19.9 mph32.0 kmh 30.17 in1021.7 mb 0.00 in0.0 mm 0.00 in0.0 mm 0.01 in0.3 mm
04:35 PM 53.2°F11.8°C 38.8°F3.8°C 58% 8.9 mph NNW14.3 kmh NNW 19.0 mph30.6 kmh 30.18 in1022.0 mb 0.00 in0.0 mm 0.00 in0.0 mm 0.01 in0.3 mm
04:45 PM 52.5°F11.4°C 38.7°F3.7°C 59% 8.9 mph N14.3 kmh N 17.9 mph28.8 kmh 30.18 in1022.0 mb 0.00 in0.0 mm 0.00 in0.0 mm 0.01 in0.3 mm
04:55 PM 52.2°F11.2°C 39.6°F4.2°C 62% 8.9 mph NNW14.3 kmh NNW 17.0 mph27.4 kmh 30.18 in1022.0 mb 0.00 in0.0 mm 0.00 in0.0 mm 0.01 in0.3 mm
05:05 PM 51.4°F10.8°C 38.8°F3.8°C 62% 11.0 mph NNW17.7 kmh NNW 19.9 mph32.0 kmh 30.18 in1022.0 mb 0.00 in0.0 mm 0.00 in0.0 mm 0.01 in0.3 mm
05:15 PM 51.1°F10.6°C 38.8°F3.8°C 63% 8.9 mph NNW14.3 kmh NNW 17.9 mph28.8 kmh 30.18 in1022.0 mb 0.00 in0.0 mm 0.00 in0.0 mm 0.01 in0.3 mm
05:25 PM 50.5°F10.3°C 38.8°F3.8°C 64% 6.9 mph NNW11.1 kmh NNW 14.1 mph22.7 kmh 30.18 in1022.0 mb 0.00 in0.0 mm 0.00 in0.0 mm 0.01 in0.3 mm
05:35 PM 50.4°F10.2°C 39.0°F3.9°C 65% 6.0 mph N9.7 kmh N 16.1 mph25.9 kmh 30.19 in1022.4 mb 0.00 in0.0 mm 0.00 in0.0 mm 0.01 in0.3 mm
05:45 PM 50.0°F10.0°C 39.0°F3.9°C 66% 2.0 mph NNW3.2 kmh NNW 10.1 mph16.3 kmh 30.19 in1022.4 mb 0.00 in0.0 mm 0.00 in0.0 mm 0.01 in0.3 mm
05:55 PM 49.6°F9.8°C 38.7°F3.7°C 66% 2.9 mph NNW4.7 kmh NNW 13.0 mph20.9 kmh 30.20 in1022.7 mb 0.00 in0.0 mm 0.00 in0.0 mm 0.01 in0.3 mm
06:05 PM 49.5°F9.7°C 38.7°F3.7°C 66% 4.0 mph N6.4 kmh N 10.1 mph16.3 kmh 30.20 in1022.7 mb 0.00 in0.0 mm 0.00 in0.0 mm 0.01 in0.3 mm
06:15 PM 49.3°F9.6°C 38.8°F3.8°C 67% 4.0 mph NW6.4 kmh NW 11.0 mph17.7 kmh 30.20 in1022.7 mb 0.00 in0.0 mm 0.00 in0.0 mm 0.01 in0.3 mm
06:25 PM 48.9°F9.4°C 38.8°F3.8°C 68% 4.0 mph 6.4 kmh 10.1 mph16.3 kmh 30.21 in1023.0 mb 0.00 in0.0 mm 0.00 in0.0 mm 0.01 in0.3 mm
06:35 PM 48.7°F9.3°C 39.0°F3.9°C 69% Calm Calm -- 30.21 in1023.0 mb 0.00 in0.0 mm 0.00 in0.0 mm 0.01 in0.3 mm
06:45 PM 48.4°F9.1°C 39.0°F3.9°C 70% Calm Calm 6.0 mph9.7 kmh 30.22 in1023.4 mb 0.00 in0.0 mm 0.00 in0.0 mm 0.01 in0.3 mm
06:55 PM 48.4°F9.1°C 39.0°F3.9°C 70% 2.0 mph NNE3.2 kmh NNE 8.9 mph14.3 kmh 30.22 in1023.4 mb 0.00 in0.0 mm 0.00 in0.0 mm 0.01 in0.3 mm
07:05 PM 48.0°F8.9°C 39.0°F3.9°C 71% 2.9 mph N4.7 kmh N 8.9 mph14.3 kmh 30.22 in1023.4 mb 0.00 in0.0 mm 0.00 in0.0 mm 0.01 in0.3 mm
07:15 PM 47.8°F8.8°C 38.8°F3.8°C 71% 0.9 mph N1.4 kmh N 8.1 mph13.0 kmh 30.22 in1023.4 mb 0.00 in0.0 mm 0.00 in0.0 mm 0.01 in0.3 mm
07:25 PM 47.7°F8.7°C 39.0°F3.9°C 72% 2.9 mph NNW4.7 kmh NNW 8.1 mph13.0 kmh 30.22 in1023.4 mb 0.00 in0.0 mm 0.00 in0.0 mm 0.01 in0.3 mm
07:35 PM 47.1°F8.4°C 38.5°F3.6°C 72% 0.9 mph NW1.4 kmh NW 4.9 mph7.9 kmh 30.23 in1023.7 mb 0.00 in0.0 mm 0.00 in0.0 mm 0.01 in0.3 mm
07:45 PM 46.2°F7.9°C 38.1°F3.4°C 73% Calm Calm 2.9 mph4.7 kmh 30.23 in1023.7 mb 0.00 in0.0 mm 0.00 in0.0 mm 0.01 in0.3 mm
08:06 PM 45.1°F7.3°C 38.7°F3.7°C 78% Calm Calm 4.0 mph6.4 kmh 30.23 in1023.7 mb 0.00 in0.0 mm 0.00 in0.0 mm 0.01 in0.3 mm
08:16 PM 44.4°F6.9°C 38.7°F3.7°C 80% Calm Calm -- 30.23 in1023.7 mb 0.00 in0.0 mm 0.00 in0.0 mm 0.01 in0.3 mm
08:26 PM 43.3°F6.3°C 37.9°F3.3°C 81% Calm Calm -- 30.23 in1023.7 mb 0.00 in0.0 mm 0.00 in0.0 mm 0.01 in0.3 mm
08:36 PM 42.4°F5.8°C 37.6°F3.1°C 83% Calm Calm 4.9 mph7.9 kmh 30.24 in1024.0 mb 0.00 in0.0 mm 0.00 in0.0 mm 0.01 in0.3 mm
08:46 PM 43.9°F6.6°C 39.7°F4.3°C 85% Calm Calm -- 30.24 in1024.0 mb 0.00 in0.0 mm 0.00 in0.0 mm 0.01 in0.3 mm
08:57 PM 44.1°F6.7°C 38.7°F3.7°C 81% Calm Calm -- 30.24 in1024.0 mb 0.00 in0.0 mm 0.00 in0.0 mm 0.01 in0.3 mm
09:07 PM 43.2°F6.2°C 38.1°F3.4°C 82% Calm Calm -- 30.25 in1024.4 mb 0.00 in0.0 mm 0.00 in0.0 mm 0.01 in0.3 mm
09:17 PM 41.5°F5.3°C 36.7°F2.6°C 83% Calm Calm -- 30.26 in1024.7 mb 0.00 in0.0 mm 0.00 in0.0 mm 0.01 in0.3 mm
09:27 PM 40.5°F4.7°C 36.0°F2.2°C 84% Calm Calm -- 30.26 in1024.7 mb 0.00 in0.0 mm 0.00 in0.0 mm 0.01 in0.3 mm
09:37 PM 39.9°F4.4°C 36.1°F2.3°C 86% Calm Calm -- 30.26 in1024.7 mb 0.00 in0.0 mm 0.00 in0.0 mm 0.01 in0.3 mm
09:47 PM 39.4°F4.1°C 35.8°F2.1°C 87% Calm Calm -- 30.26 in1024.7 mb 0.00 in0.0 mm 0.00 in0.0 mm 0.01 in0.3 mm
09:57 PM 39.2°F4.0°C 36.0°F2.2°C 88% Calm Calm -- 30.27 in1025.1 mb 0.00 in0.0 mm 0.00 in0.0 mm 0.01 in0.3 mm
10:07 PM 38.8°F3.8°C 36.0°F2.2°C 89% Calm Calm -- 30.27 in1025.1 mb 0.00 in0.0 mm 0.00 in0.0 mm 0.01 in0.3 mm
10:18 PM 38.5°F3.6°C 35.6°F2.0°C 89% Calm Calm -- 30.27 in1025.1 mb 0.00 in0.0 mm 0.00 in0.0 mm 0.01 in0.3 mm
10:28 PM 38.3°F3.5°C 35.6°F2.0°C 90% Calm Calm -- 30.27 in1025.1 mb 0.00 in0.0 mm 0.00 in0.0 mm 0.01 in0.3 mm
10:38 PM 37.6°F3.1°C 34.7°F1.5°C 89% Calm Calm -- 30.27 in1025.1 mb 0.00 in0.0 mm 0.00 in0.0 mm 0.01 in0.3 mm
10:48 PM 37.6°F3.1°C 34.9°F1.6°C 90% Calm Calm -- 30.27 in1025.1 mb 0.00 in0.0 mm 0.00 in0.0 mm 0.01 in0.3 mm
10:58 PM 37.8°F3.2°C 35.4°F1.9°C 91% Calm Calm -- 30.27 in1025.1 mb 0.00 in0.0 mm 0.00 in0.0 mm 0.01 in0.3 mm
11:08 PM 37.2°F2.9°C 34.5°F1.4°C 90% Calm Calm -- 30.27 in1025.1 mb 0.00 in0.0 mm 0.00 in0.0 mm 0.01 in0.3 mm
11:18 PM 37.0°F2.8°C 34.7°F1.5°C 91% Calm Calm -- 30.27 in1025.1 mb 0.00 in0.0 mm 0.00 in0.0 mm 0.01 in0.3 mm
11:29 PM 36.7°F2.6°C 34.3°F1.3°C 91% Calm Calm -- 30.27 in1025.1 mb 0.00 in0.0 mm 0.00 in0.0 mm 0.01 in0.3 mm
11:39 PM 36.3°F2.4°C 34.0°F1.1°C 91% Calm Calm -- 30.27 in1025.1 mb 0.00 in0.0 mm 0.00 in0.0 mm 0.01 in0.3 mm
11:49 PM 36.1°F2.3°C 33.8°F1.0°C 91% Calm Calm -- 30.27 in1025.1 mb 0.00 in0.0 mm 0.00 in0.0 mm 0.01 in0.3 mm
11:59 PM 36.0°F2.2°C 33.6°F0.9°C 91% Calm Calm -- 30.27 in1025.1 mb 0.00 in0.0 mm 0.00 in0.0 mm 0.01 in0.3 mm